Ceredo, WV

11:27 AM EDT on September 16, 2014 (GMT -0400)
Tri-State / Ferguson | Change Station
CLOSE
Current Station
Airport
Location: Huntington,
Elevation: 837 ft
Nearby Weather Stations

Elev 837 ft 38.37 °N, 82.56 °W | Updated 36 minutes ago

Overcast
Overcast
59 °F
Feels Like 59 °F
N
6
Wind Variable Wind from NNE

Today
High -- | Low -- °F
--% Chance of Precip.
Yesterday
High -- | Low -- °F
Precip. -- in
7:12 AM 7:36 PM
Last Quarter, 45% visible
Pressure 30.12 in
Visibility 5.0 miles
Clouds Scattered Clouds 700 ft
Overcast 1200 ft
Dew Point 58 °F
Humidity 96%
Rainfall 0.02 in
Snow Depth Not available.
UV 2 out of 12
Pollen 4.80 out of 12
Air Quality Not available.
Flu Activity Not available.
METAR KHTS 161451Z AUTO 02005KT 5SM BR SCT007 OVC012 15/14 A3013 RMK AO2 RAE1354 SLP199 P0000 60001 T01500144 53005 TSNO

More Conditions Fewer Conditions

Pressure 30.12 in
Visibility 5.0 miles
Clouds Scattered Clouds 700 ft
Overcast 1200 ft
Dew Point 58 °F
Humidity 96%
Rainfall 0.02 in
Snow Depth Not available.
UV 2 out of 12
Pollen 4.80 out of 12
Air Quality Not available.
Flu Activity Not available.
METAR KHTS 161451Z AUTO 02005KT 5SM BR SCT007 OVC012 15/14 A3013 RMK AO2 RAE1354 SLP199 P0000 60001 T01500144 53005 TSNO

More Conditions Fewer Conditions

10-Day Weather Forecast

Almanac

Astronomy

Sep. 16, 2014 Rise Set
Actual Time 7:12 AM EDT 7:36 PM EDT
Civil Twilight 6:46 AM EDT 8:03 PM EDT
Nautical Twilight 6:15 AM EDT 8:34 PM EDT
Astronomical Twilight 5:43 AM EDT 9:06 PM EDT
Moon 12:24 AM EDT 2:56 PM EDT
Length of Visible Light 13h 17m
Length of Day
12h 24m
Tomorrow will be 2m 27s shorter.
Last Quarter, 45% of the Moon is Illuminated
Today
Last Quarter
Sep 24
New
Oct 1
First Quarter
Oct 8
Full
Oct 15
Last Quarter

Today's Extremes

State Highs State Lows

Community

WunderPhotos

Upload Photos

1,753,807 photos uploaded!

Nearby

Snow Depth

Station Depth Elevation
No new snow has been reported.

Earthquake Activity

City Distance Mag. Time & Date
No recent earthquake activity has been reported nearby.
Minimum magnitude displayed is 2.5.

Coastal Water Temperatures

Place Temperature
No Stations Reporting

Nearby Weather Stations